sensor_id;sensor_type;location;lat;lon;timestamp;P1;durP1;ratioP1;P2;durP2;ratioP2
72105;SDS011;59975;47.646;18.318;2022-08-19T00:02:08;12.20;;;8.27;;
72105;SDS011;59975;47.646;18.318;2022-08-19T00:04:34;15.07;;;9.15;;
72105;SDS011;59975;47.646;18.318;2022-08-19T00:07:02;13.13;;;8.40;;
72105;SDS011;59975;47.646;18.318;2022-08-19T00:09:29;13.45;;;8.65;;
72105;SDS011;59975;47.646;18.318;2022-08-19T00:11:55;12.60;;;8.30;;
72105;SDS011;59975;47.646;18.318;2022-08-19T00:14:22;11.30;;;8.32;;
72105;SDS011;59975;47.646;18.318;2022-08-19T00:16:51;12.27;;;8.30;;
72105;SDS011;59975;47.646;18.318;2022-08-19T00:22:41;13.23;;;8.38;;
72105;SDS011;59975;47.646;18.318;2022-08-19T00:25:08;13.95;;;8.30;;
72105;SDS011;59975;47.646;18.318;2022-08-19T00:30:56;13.38;;;8.52;;
72105;SDS011;59975;47.646;18.318;2022-08-19T00:33:21;12.37;;;7.40;;
72105;SDS011;59975;47.646;18.318;2022-08-19T00:35:48;14.13;;;8.45;;
72105;SDS011;59975;47.646;18.318;2022-08-19T00:38:15;13.80;;;8.38;;
72105;SDS011;59975;47.646;18.318;2022-08-19T00:40:42;16.53;;;8.07;;
72105;SDS011;59975;47.646;18.318;2022-08-19T00:43:12;10.88;;;7.35;;
72105;SDS011;59975;47.646;18.318;2022-08-19T00:45:39;11.98;;;7.97;;
72105;SDS011;59975;47.646;18.318;2022-08-19T00:48:08;15.65;;;8.15;;
72105;SDS011;59975;47.646;18.318;2022-08-19T00:50:34;12.75;;;8.00;;
72105;SDS011;59975;47.646;18.318;2022-08-19T00:53:01;11.23;;;7.73;;
72105;SDS011;59975;47.646;18.318;2022-08-19T00:55:29;13.57;;;7.55;;
72105;SDS011;59975;47.646;18.318;2022-08-19T00:58:00;10.80;;;7.53;;
72105;SDS011;59975;47.646;18.318;2022-08-19T01:00:29;12.00;;;7.65;;
72105;SDS011;59975;47.646;18.318;2022-08-19T01:02:56;11.15;;;7.18;;
72105;SDS011;59975;47.646;18.318;2022-08-19T01:05:23;10.93;;;6.90;;
72105;SDS011;59975;47.646;18.318;2022-08-19T01:07:53;14.63;;;7.88;;
72105;SDS011;59975;47.646;18.318;2022-08-19T01:10:23;13.77;;;7.07;;
72105;SDS011;59975;47.646;18.318;2022-08-19T01:16:13;9.15;;;6.70;;
72105;SDS011;59975;47.646;18.318;2022-08-19T01:35:17;11.43;;;7.70;;
72105;SDS011;59975;47.646;18.318;2022-08-19T01:37:56;11.52;;;7.65;;
72105;SDS011;59975;47.646;18.318;2022-08-19T01:40:26;13.80;;;8.05;;
72105;SDS011;59975;47.646;18.318;2022-08-19T01:42:53;13.50;;;6.95;;
72105;SDS011;59975;47.646;18.318;2022-08-19T01:45:19;12.88;;;7.78;;
72105;SDS011;59975;47.646;18.318;2022-08-19T01:47:48;11.10;;;7.07;;
72105;SDS011;59975;47.646;18.318;2022-08-19T01:53:37;10.43;;;7.50;;
72105;SDS011;59975;47.646;18.318;2022-08-19T01:56:03;12.98;;;7.40;;
72105;SDS011;59975;47.646;18.318;2022-08-19T01:58:32;13.50;;;7.75;;
72105;SDS011;59975;47.646;18.318;2022-08-19T02:01:03;13.40;;;8.33;;
72105;SDS011;59975;47.646;18.318;2022-08-19T02:03:29;12.65;;;8.52;;
72105;SDS011;59975;47.646;18.318;2022-08-19T02:05:56;11.73;;;7.10;;
72105;SDS011;59975;47.646;18.318;2022-08-19T02:08:26;10.25;;;7.43;;
72105;SDS011;59975;47.646;18.318;2022-08-19T02:10:53;11.50;;;8.43;;
72105;SDS011;59975;47.646;18.318;2022-08-19T02:13:20;12.55;;;8.65;;
72105;SDS011;59975;47.646;18.318;2022-08-19T02:15:50;13.18;;;8.50;;
72105;SDS011;59975;47.646;18.318;2022-08-19T02:18:17;12.20;;;8.53;;
72105;SDS011;59975;47.646;18.318;2022-08-19T02:20:44;15.45;;;8.60;;
72105;SDS011;59975;47.646;18.318;2022-08-19T02:23:10;15.98;;;8.55;;
72105;SDS011;59975;47.646;18.318;2022-08-19T02:25:38;17.55;;;8.27;;
72105;SDS011;59975;47.646;18.318;2022-08-19T02:28:04;16.13;;;8.40;;
72105;SDS011;59975;47.646;18.318;2022-08-19T02:30:31;12.63;;;8.27;;
72105;SDS011;59975;47.646;18.318;2022-08-19T02:32:58;12.88;;;9.18;;
72105;SDS011;59975;47.646;18.318;2022-08-19T02:35:25;12.93;;;7.90;;
72105;SDS011;59975;47.646;18.318;2022-08-19T02:41:16;13.13;;;8.35;;
72105;SDS011;59975;47.646;18.318;2022-08-19T02:43:44;11.87;;;8.33;;
72105;SDS011;59975;47.646;18.318;2022-08-19T02:46:21;13.38;;;8.40;;
72105;SDS011;59975;47.646;18.318;2022-08-19T02:48:51;12.27;;;7.45;;
72105;SDS011;59975;47.646;18.318;2022-08-19T02:51:20;10.63;;;7.50;;
72105;SDS011;59975;47.646;18.318;2022-08-19T02:53:48;13.15;;;8.10;;
72105;SDS011;59975;47.646;18.318;2022-08-19T02:56:14;10.90;;;7.40;;
72105;SDS011;59975;47.646;18.318;2022-08-19T02:58:40;13.52;;;8.38;;
72105;SDS011;59975;47.646;18.318;2022-08-19T03:01:08;13.23;;;8.02;;
72105;SDS011;59975;47.646;18.318;2022-08-19T03:03:34;13.73;;;8.13;;
72105;SDS011;59975;47.646;18.318;2022-08-19T03:06:07;10.63;;;7.40;;
72105;SDS011;59975;47.646;18.318;2022-08-19T03:08:33;12.32;;;7.57;;
72105;SDS011;59975;47.646;18.318;2022-08-19T03:10:59;13.23;;;9.13;;
72105;SDS011;59975;47.646;18.318;2022-08-19T03:13:26;12.63;;;8.37;;
72105;SDS011;59975;47.646;18.318;2022-08-19T03:15:53;11.63;;;7.80;;
72105;SDS011;59975;47.646;18.318;2022-08-19T03:21:40;13.67;;;8.30;;
72105;SDS011;59975;47.646;18.318;2022-08-19T03:27:31;11.40;;;8.50;;
72105;SDS011;59975;47.646;18.318;2022-08-19T03:29:57;13.83;;;8.40;;
72105;SDS011;59975;47.646;18.318;2022-08-19T03:32:23;11.48;;;8.15;;
72105;SDS011;59975;47.646;18.318;2022-08-19T03:38:11;14.77;;;8.63;;
72105;SDS011;59975;47.646;18.318;2022-08-19T03:40:37;11.55;;;8.18;;
72105;SDS011;59975;47.646;18.318;2022-08-19T03:43:02;13.60;;;9.00;;
72105;SDS011;59975;47.646;18.318;2022-08-19T03:48:51;13.98;;;8.18;;
72105;SDS011;59975;47.646;18.318;2022-08-19T03:54:11;13.00;;;8.55;;
72105;SDS011;59975;47.646;18.318;2022-08-19T03:56:39;11.47;;;8.10;;
72105;SDS011;59975;47.646;18.318;2022-08-19T03:59:07;12.48;;;8.10;;
72105;SDS011;59975;47.646;18.318;2022-08-19T04:01:35;11.52;;;8.05;;
72105;SDS011;59975;47.646;18.318;2022-08-19T04:04:01;13.13;;;7.82;;
72105;SDS011;59975;47.646;18.318;2022-08-19T04:06:29;13.02;;;7.80;;
72105;SDS011;59975;47.646;18.318;2022-08-19T04:08:58;13.27;;;7.40;;
72105;SDS011;59975;47.646;18.318;2022-08-19T04:14:49;12.35;;;6.38;;
72105;SDS011;59975;47.646;18.318;2022-08-19T04:17:15;11.13;;;6.85;;
72105;SDS011;59975;47.646;18.318;2022-08-19T04:19:41;14.23;;;6.50;;
72105;SDS011;59975;47.646;18.318;2022-08-19T04:25:34;7.40;;;5.75;;
72105;SDS011;59975;47.646;18.318;2022-08-19T04:28:01;8.90;;;6.20;;
72105;SDS011;59975;47.646;18.318;2022-08-19T04:30:27;10.65;;;6.07;;
72105;SDS011;59975;47.646;18.318;2022-08-19T04:36:15;11.10;;;6.50;;
72105;SDS011;59975;47.646;18.318;2022-08-19T04:38:43;8.77;;;6.30;;
72105;SDS011;59975;47.646;18.318;2022-08-19T04:41:08;9.68;;;6.18;;
72105;SDS011;59975;47.646;18.318;2022-08-19T04:43:54;9.07;;;6.20;;
72105;SDS011;59975;47.646;18.318;2022-08-19T04:46:20;9.00;;;6.72;;
72105;SDS011;59975;47.646;18.318;2022-08-19T04:52:08;11.73;;;6.32;;
72105;SDS011;59975;47.646;18.318;2022-08-19T04:54:33;13.03;;;6.50;;
72105;SDS011;59975;47.646;18.318;2022-08-19T04:56:59;9.13;;;5.33;;
72105;SDS011;59975;47.646;18.318;2022-08-19T04:59:25;9.43;;;6.37;;
72105;SDS011;59975;47.646;18.318;2022-08-19T05:05:14;10.05;;;5.90;;
72105;SDS011;59975;47.646;18.318;2022-08-19T05:07:41;8.38;;;6.05;;
72105;SDS011;59975;47.646;18.318;2022-08-19T05:10:07;11.00;;;5.70;;
72105;SDS011;59975;47.646;18.318;2022-08-19T05:12:34;9.53;;;5.80;;
72105;SDS011;59975;47.646;18.318;2022-08-19T05:18:24;10.13;;;6.60;;
72105;SDS011;59975;47.646;18.318;2022-08-19T05:24:32;11.05;;;5.68;;
72105;SDS011;59975;47.646;18.318;2022-08-19T05:27:02;12.50;;;5.30;;
72105;SDS011;59975;47.646;18.318;2022-08-19T05:29:29;10.07;;;6.00;;
72105;SDS011;59975;47.646;18.318;2022-08-19T05:31:56;9.90;;;5.88;;
72105;SDS011;59975;47.646;18.318;2022-08-19T05:34:23;15.40;;;6.30;;
72105;SDS011;59975;47.646;18.318;2022-08-19T05:36:52;9.45;;;5.82;;
72105;SDS011;59975;47.646;18.318;2022-08-19T05:39:23;13.37;;;5.63;;
72105;SDS011;59975;47.646;18.318;2022-08-19T05:41:52;10.05;;;6.47;;
72105;SDS011;59975;47.646;18.318;2022-08-19T05:44:21;10.07;;;5.80;;
72105;SDS011;59975;47.646;18.318;2022-08-19T05:46:48;7.65;;;5.50;;
72105;SDS011;59975;47.646;18.318;2022-08-19T05:49:14;7.40;;;5.97;;
72105;SDS011;59975;47.646;18.318;2022-08-19T05:51:41;9.13;;;5.00;;
72105;SDS011;59975;47.646;18.318;2022-08-19T05:54:08;8.32;;;5.28;;
72105;SDS011;59975;47.646;18.318;2022-08-19T05:59:58;9.15;;;6.10;;
72105;SDS011;59975;47.646;18.318;2022-08-19T06:02:29;9.68;;;6.38;;
72105;SDS011;59975;47.646;18.318;2022-08-19T06:04:55;11.30;;;5.70;;
72105;SDS011;59975;47.646;18.318;2022-08-19T06:07:21;8.70;;;5.70;;
72105;SDS011;59975;47.646;18.318;2022-08-19T06:09:47;11.63;;;6.07;;
72105;SDS011;59975;47.646;18.318;2022-08-19T06:12:13;11.80;;;6.10;;
72105;SDS011;59975;47.646;18.318;2022-08-19T06:14:39;10.33;;;5.13;;
72105;SDS011;59975;47.646;18.318;2022-08-19T06:17:05;11.98;;;5.25;;
72105;SDS011;59975;47.646;18.318;2022-08-19T06:19:32;8.00;;;5.20;;
72105;SDS011;59975;47.646;18.318;2022-08-19T06:21:58;10.15;;;5.20;;
72105;SDS011;59975;47.646;18.318;2022-08-19T06:27:46;7.13;;;5.45;;
72105;SDS011;59975;47.646;18.318;2022-08-19T06:30:12;10.07;;;5.50;;
72105;SDS011;59975;47.646;18.318;2022-08-19T06:32:39;11.90;;;5.57;;
72105;SDS011;59975;47.646;18.318;2022-08-19T06:35:04;8.15;;;5.82;;
72105;SDS011;59975;47.646;18.318;2022-08-19T06:37:30;10.45;;;5.68;;
72105;SDS011;59975;47.646;18.318;2022-08-19T06:39:56;11.87;;;6.20;;
72105;SDS011;59975;47.646;18.318;2022-08-19T06:42:21;8.17;;;5.50;;
72105;SDS011;59975;47.646;18.318;2022-08-19T06:44:47;7.00;;;5.47;;
72105;SDS011;59975;47.646;18.318;2022-08-19T06:47:15;9.37;;;5.67;;
72105;SDS011;59975;47.646;18.318;2022-08-19T06:49:43;12.45;;;6.30;;
72105;SDS011;59975;47.646;18.318;2022-08-19T06:52:10;10.07;;;5.47;;
72105;SDS011;59975;47.646;18.318;2022-08-19T06:54:39;8.00;;;4.90;;
72105;SDS011;59975;47.646;18.318;2022-08-19T06:57:07;9.02;;;5.20;;
72105;SDS011;59975;47.646;18.318;2022-08-19T06:59:40;10.53;;;5.53;;
72105;SDS011;59975;47.646;18.318;2022-08-19T07:02:06;14.55;;;5.90;;
72105;SDS011;59975;47.646;18.318;2022-08-19T07:04:33;10.48;;;5.65;;
72105;SDS011;59975;47.646;18.318;2022-08-19T07:07:13;9.18;;;5.85;;
72105;SDS011;59975;47.646;18.318;2022-08-19T07:09:42;9.45;;;5.53;;
72105;SDS011;59975;47.646;18.318;2022-08-19T07:12:11;11.27;;;5.67;;
72105;SDS011;59975;47.646;18.318;2022-08-19T07:14:40;11.65;;;5.63;;
72105;SDS011;59975;47.646;18.318;2022-08-19T07:17:09;9.90;;;5.95;;
72105;SDS011;59975;47.646;18.318;2022-08-19T07:19:36;11.65;;;6.25;;
72105;SDS011;59975;47.646;18.318;2022-08-19T07:22:04;8.45;;;5.15;;
72105;SDS011;59975;47.646;18.318;2022-08-19T07:27:55;9.50;;;6.40;;
72105;SDS011;59975;47.646;18.318;2022-08-19T07:30:21;9.15;;;5.57;;
72105;SDS011;59975;47.646;18.318;2022-08-19T07:39:32;14.73;;;5.77;;
72105;SDS011;59975;47.646;18.318;2022-08-19T07:42:00;8.45;;;5.55;;
72105;SDS011;59975;47.646;18.318;2022-08-19T07:44:28;11.00;;;5.75;;
72105;SDS011;59975;47.646;18.318;2022-08-19T07:46:55;13.63;;;6.00;;
72105;SDS011;59975;47.646;18.318;2022-08-19T07:49:23;8.18;;;5.50;;
72105;SDS011;59975;47.646;18.318;2022-08-19T07:51:51;12.35;;;6.00;;
72105;SDS011;59975;47.646;18.318;2022-08-19T07:57:45;11.75;;;5.97;;
72105;SDS011;59975;47.646;18.318;2022-08-19T08:00:11;9.60;;;5.53;;
72105;SDS011;59975;47.646;18.318;2022-08-19T08:02:37;11.15;;;6.07;;
72105;SDS011;59975;47.646;18.318;2022-08-19T08:05:04;9.73;;;5.70;;
72105;SDS011;59975;47.646;18.318;2022-08-19T08:07:50;14.75;;;5.75;;
72105;SDS011;59975;47.646;18.318;2022-08-19T08:10:35;13.00;;;5.10;;
72105;SDS011;59975;47.646;18.318;2022-08-19T08:13:01;11.03;;;5.80;;
72105;SDS011;59975;47.646;18.318;2022-08-19T08:15:28;15.52;;;5.90;;
72105;SDS011;59975;47.646;18.318;2022-08-19T08:21:15;9.50;;;5.55;;
72105;SDS011;59975;47.646;18.318;2022-08-19T08:23:42;12.30;;;6.03;;
72105;SDS011;59975;47.646;18.318;2022-08-19T08:26:08;8.77;;;5.28;;
72105;SDS011;59975;47.646;18.318;2022-08-19T08:28:34;8.70;;;5.77;;
72105;SDS011;59975;47.646;18.318;2022-08-19T08:31:00;8.48;;;5.32;;
72105;SDS011;59975;47.646;18.318;2022-08-19T08:33:27;8.77;;;5.10;;
72105;SDS011;59975;47.646;18.318;2022-08-19T08:35:56;11.57;;;5.50;;
72105;SDS011;59975;47.646;18.318;2022-08-19T08:38:22;8.70;;;5.22;;
72105;SDS011;59975;47.646;18.318;2022-08-19T08:44:13;11.15;;;4.75;;
72105;SDS011;59975;47.646;18.318;2022-08-19T08:50:05;14.10;;;5.40;;
72105;SDS011;59975;47.646;18.318;2022-08-19T08:52:34;8.05;;;5.00;;
72105;SDS011;59975;47.646;18.318;2022-08-19T08:55:10;16.47;;;4.90;;
72105;SDS011;59975;47.646;18.318;2022-08-19T09:10:55;9.63;;;4.23;;
72105;SDS011;59975;47.646;18.318;2022-08-19T09:36:49;9.13;;;4.55;;
72105;SDS011;59975;47.646;18.318;2022-08-19T09:39:18;7.13;;;4.68;;
72105;SDS011;59975;47.646;18.318;2022-08-19T09:41:44;9.43;;;4.53;;
72105;SDS011;59975;47.646;18.318;2022-08-19T09:44:10;10.87;;;4.60;;
72105;SDS011;59975;47.646;18.318;2022-08-19T09:46:39;11.00;;;4.78;;
72105;SDS011;59975;47.646;18.318;2022-08-19T09:49:05;7.43;;;4.20;;
72105;SDS011;59975;47.646;18.318;2022-08-19T09:54:53;7.25;;;3.65;;
72105;SDS011;59975;47.646;18.318;2022-08-19T09:57:19;8.27;;;4.13;;
72105;SDS011;59975;47.646;18.318;2022-08-19T10:03:07;9.87;;;4.23;;
72105;SDS011;59975;47.646;18.318;2022-08-19T10:05:33;14.25;;;4.18;;
72105;SDS011;59975;47.646;18.318;2022-08-19T10:11:41;11.88;;;4.53;;
72105;SDS011;59975;47.646;18.318;2022-08-19T10:14:07;6.70;;;3.78;;
72105;SDS011;59975;47.646;18.318;2022-08-19T10:16:35;8.87;;;4.10;;
72105;SDS011;59975;47.646;18.318;2022-08-19T10:19:02;11.00;;;4.00;;
72105;SDS011;59975;47.646;18.318;2022-08-19T10:24:52;10.40;;;3.80;;
72105;SDS011;59975;47.646;18.318;2022-08-19T10:27:18;9.00;;;4.35;;
72105;SDS011;59975;47.646;18.318;2022-08-19T10:29:45;6.00;;;4.50;;
72105;SDS011;59975;47.646;18.318;2022-08-19T10:35:34;9.23;;;4.10;;
72105;SDS011;59975;47.646;18.318;2022-08-19T10:38:02;6.32;;;3.53;;
72105;SDS011;59975;47.646;18.318;2022-08-19T10:43:54;10.07;;;3.40;;
72105;SDS011;59975;47.646;18.318;2022-08-19T10:46:23;6.80;;;3.80;;
72105;SDS011;59975;47.646;18.318;2022-08-19T10:48:51;10.20;;;4.00;;
72105;SDS011;59975;47.646;18.318;2022-08-19T10:51:18;11.02;;;3.85;;
72105;SDS011;59975;47.646;18.318;2022-08-19T10:54:04;9.38;;;4.07;;
72105;SDS011;59975;47.646;18.318;2022-08-19T10:56:31;12.15;;;3.33;;
72105;SDS011;59975;47.646;18.318;2022-08-19T10:59:20;10.03;;;3.93;;
72105;SDS011;59975;47.646;18.318;2022-08-19T11:01:47;9.57;;;3.58;;
72105;SDS011;59975;47.646;18.318;2022-08-19T11:04:16;15.90;;;4.60;;
72105;SDS011;59975;47.646;18.318;2022-08-19T11:06:44;10.02;;;3.75;;
72105;SDS011;59975;47.646;18.318;2022-08-19T11:09:19;9.15;;;4.13;;
72105;SDS011;59975;47.646;18.318;2022-08-19T11:18:31;7.10;;;4.00;;
72105;SDS011;59975;47.646;18.318;2022-08-19T11:21:08;10.38;;;4.03;;
72105;SDS011;59975;47.646;18.318;2022-08-19T11:27:03;9.30;;;4.10;;
72105;SDS011;59975;47.646;18.318;2022-08-19T11:29:32;11.25;;;4.35;;
72105;SDS011;59975;47.646;18.318;2022-08-19T11:38:47;12.10;;;3.60;;
72105;SDS011;59975;47.646;18.318;2022-08-19T11:44:36;11.05;;;3.70;;
72105;SDS011;59975;47.646;18.318;2022-08-19T11:47:02;10.38;;;4.43;;
72105;SDS011;59975;47.646;18.318;2022-08-19T11:49:28;9.98;;;5.00;;
72105;SDS011;59975;47.646;18.318;2022-08-19T11:51:54;11.13;;;4.60;;
72105;SDS011;59975;47.646;18.318;2022-08-19T11:54:21;14.90;;;4.85;;
72105;SDS011;59975;47.646;18.318;2022-08-19T11:56:47;11.40;;;4.93;;
72105;SDS011;59975;47.646;18.318;2022-08-19T11:59:15;11.13;;;4.57;;
72105;SDS011;59975;47.646;18.318;2022-08-19T12:01:42;10.93;;;4.70;;
72105;SDS011;59975;47.646;18.318;2022-08-19T12:07:32;8.80;;;4.75;;
72105;SDS011;59975;47.646;18.318;2022-08-19T12:09:58;8.82;;;4.70;;
72105;SDS011;59975;47.646;18.318;2022-08-19T12:12:25;11.07;;;4.63;;
72105;SDS011;59975;47.646;18.318;2022-08-19T12:14:52;6.40;;;4.23;;
72105;SDS011;59975;47.646;18.318;2022-08-19T12:17:25;13.80;;;4.43;;
72105;SDS011;59975;47.646;18.318;2022-08-19T12:19:52;8.05;;;4.88;;
72105;SDS011;59975;47.646;18.318;2022-08-19T12:22:20;9.10;;;3.53;;
72105;SDS011;59975;47.646;18.318;2022-08-19T12:28:08;17.43;;;3.90;;
72105;SDS011;59975;47.646;18.318;2022-08-19T12:30:33;11.13;;;3.53;;
72105;SDS011;59975;47.646;18.318;2022-08-19T12:33:02;16.47;;;4.20;;
72105;SDS011;59975;47.646;18.318;2022-08-19T12:38:50;22.53;;;4.40;;
72105;SDS011;59975;47.646;18.318;2022-08-19T12:41:16;15.98;;;4.03;;
72105;SDS011;59975;47.646;18.318;2022-08-19T12:47:05;11.55;;;3.95;;
72105;SDS011;59975;47.646;18.318;2022-08-19T12:49:33;10.25;;;3.63;;
72105;SDS011;59975;47.646;18.318;2022-08-19T12:52:00;12.33;;;3.63;;
72105;SDS011;59975;47.646;18.318;2022-08-19T12:57:49;12.27;;;3.55;;
72105;SDS011;59975;47.646;18.318;2022-08-19T13:03:37;10.77;;;3.15;;
72105;SDS011;59975;47.646;18.318;2022-08-19T13:06:04;13.33;;;3.43;;
72105;SDS011;59975;47.646;18.318;2022-08-19T13:08:30;16.92;;;3.63;;
72105;SDS011;59975;47.646;18.318;2022-08-19T13:10:57;11.90;;;3.30;;
72105;SDS011;59975;47.646;18.318;2022-08-19T13:13:23;9.13;;;3.10;;
72105;SDS011;59975;47.646;18.318;2022-08-19T13:15:52;13.25;;;2.88;;
72105;SDS011;59975;47.646;18.318;2022-08-19T13:21:40;11.77;;;3.05;;
72105;SDS011;59975;47.646;18.318;2022-08-19T13:24:05;13.23;;;3.07;;
72105;SDS011;59975;47.646;18.318;2022-08-19T13:26:31;11.25;;;3.30;;
72105;SDS011;59975;47.646;18.318;2022-08-19T13:28:56;12.70;;;3.30;;
72105;SDS011;59975;47.646;18.318;2022-08-19T13:31:42;13.73;;;3.20;;
72105;SDS011;59975;47.646;18.318;2022-08-19T13:34:30;13.45;;;3.15;;
72105;SDS011;59975;47.646;18.318;2022-08-19T13:36:58;10.48;;;3.00;;
72105;SDS011;59975;47.646;18.318;2022-08-19T13:39:28;12.60;;;2.47;;
72105;SDS011;59975;47.646;18.318;2022-08-19T13:41:55;13.48;;;2.00;;
72105;SDS011;59975;47.646;18.318;2022-08-19T13:44:21;13.82;;;2.17;;
72105;SDS011;59975;47.646;18.318;2022-08-19T13:46:48;16.50;;;2.85;;
72105;SDS011;59975;47.646;18.318;2022-08-19T13:49:18;8.93;;;2.10;;
72105;SDS011;59975;47.646;18.318;2022-08-19T13:51:46;13.38;;;2.08;;
72105;SDS011;59975;47.646;18.318;2022-08-19T13:54:13;16.17;;;2.55;;
72105;SDS011;59975;47.646;18.318;2022-08-19T13:56:42;8.05;;;2.22;;
72105;SDS011;59975;47.646;18.318;2022-08-19T13:59:10;9.60;;;2.00;;
72105;SDS011;59975;47.646;18.318;2022-08-19T14:01:37;9.37;;;2.20;;
72105;SDS011;59975;47.646;18.318;2022-08-19T14:07:25;8.27;;;2.10;;
72105;SDS011;59975;47.646;18.318;2022-08-19T14:09:51;12.07;;;1.85;;
72105;SDS011;59975;47.646;18.318;2022-08-19T14:12:18;7.40;;;1.97;;
72105;SDS011;59975;47.646;18.318;2022-08-19T14:14:44;11.45;;;2.00;;
72105;SDS011;59975;47.646;18.318;2022-08-19T14:17:10;10.30;;;1.95;;
72105;SDS011;59975;47.646;18.318;2022-08-19T14:19:37;8.70;;;1.70;;
72105;SDS011;59975;47.646;18.318;2022-08-19T14:22:02;9.75;;;2.28;;
72105;SDS011;59975;47.646;18.318;2022-08-19T14:24:31;11.15;;;1.75;;
72105;SDS011;59975;47.646;18.318;2022-08-19T14:26:58;10.02;;;2.55;;
72105;SDS011;59975;47.646;18.318;2022-08-19T14:29:26;9.98;;;2.15;;
72105;SDS011;59975;47.646;18.318;2022-08-19T14:31:54;12.70;;;2.30;;
72105;SDS011;59975;47.646;18.318;2022-08-19T14:34:23;8.55;;;1.92;;
72105;SDS011;59975;47.646;18.318;2022-08-19T14:36:49;12.15;;;2.25;;
72105;SDS011;59975;47.646;18.318;2022-08-19T14:39:17;9.17;;;1.83;;
72105;SDS011;59975;47.646;18.318;2022-08-19T14:41:42;12.43;;;2.60;;
72105;SDS011;59975;47.646;18.318;2022-08-19T14:44:08;10.30;;;3.27;;
72105;SDS011;59975;47.646;18.318;2022-08-19T14:46:37;14.07;;;2.78;;
72105;SDS011;59975;47.646;18.318;2022-08-19T14:49:05;10.15;;;2.55;;
72105;SDS011;59975;47.646;18.318;2022-08-19T14:54:53;9.63;;;2.08;;
72105;SDS011;59975;47.646;18.318;2022-08-19T14:57:18;11.70;;;2.20;;
72105;SDS011;59975;47.646;18.318;2022-08-19T14:59:45;9.30;;;2.05;;
72105;SDS011;59975;47.646;18.318;2022-08-19T15:05:33;12.88;;;2.35;;
72105;SDS011;59975;47.646;18.318;2022-08-19T15:08:04;13.02;;;2.45;;
72105;SDS011;59975;47.646;18.318;2022-08-19T15:10:30;6.83;;;2.30;;
72105;SDS011;59975;47.646;18.318;2022-08-19T15:12:58;12.00;;;2.05;;
72105;SDS011;59975;47.646;18.318;2022-08-19T15:15:24;11.75;;;2.38;;
72105;SDS011;59975;47.646;18.318;2022-08-19T15:17:52;12.57;;;5.47;;
72105;SDS011;59975;47.646;18.318;2022-08-19T15:20:20;19.40;;;5.18;;
72105;SDS011;59975;47.646;18.318;2022-08-19T15:22:50;10.50;;;2.67;;
72105;SDS011;59975;47.646;18.318;2022-08-19T15:25:17;14.80;;;3.72;;
72105;SDS011;59975;47.646;18.318;2022-08-19T15:31:06;14.25;;;3.55;;
72105;SDS011;59975;47.646;18.318;2022-08-19T15:36:56;12.47;;;3.03;;
72105;SDS011;59975;47.646;18.318;2022-08-19T15:42:45;14.38;;;3.15;;
72105;SDS011;59975;47.646;18.318;2022-08-19T15:48:33;8.88;;;2.42;;
72105;SDS011;59975;47.646;18.318;2022-08-19T15:51:00;14.17;;;2.93;;
72105;SDS011;59975;47.646;18.318;2022-08-19T15:56:48;12.97;;;3.30;;
72105;SDS011;59975;47.646;18.318;2022-08-19T15:59:36;15.90;;;4.13;;
72105;SDS011;59975;47.646;18.318;2022-08-19T16:02:25;13.15;;;3.22;;
72105;SDS011;59975;47.646;18.318;2022-08-19T16:08:34;16.15;;;3.38;;
72105;SDS011;59975;47.646;18.318;2022-08-19T16:10:59;15.83;;;3.47;;
72105;SDS011;59975;47.646;18.318;2022-08-19T16:16:48;11.43;;;2.90;;
72105;SDS011;59975;47.646;18.318;2022-08-19T16:36:09;16.20;;;4.60;;
72105;SDS011;59975;47.646;18.318;2022-08-19T16:38:34;17.80;;;4.50;;
72105;SDS011;59975;47.646;18.318;2022-08-19T16:41:03;12.57;;;4.20;;
72105;SDS011;59975;47.646;18.318;2022-08-19T16:56:56;25.03;;;8.87;;
72105;SDS011;59975;47.646;18.318;2022-08-19T17:02:44;19.90;;;8.25;;
72105;SDS011;59975;47.646;18.318;2022-08-19T17:08:31;22.17;;;10.75;;
72105;SDS011;59975;47.646;18.318;2022-08-19T17:27:47;21.65;;;10.20;;
72105;SDS011;59975;47.646;18.318;2022-08-19T17:33:36;20.90;;;9.88;;
72105;SDS011;59975;47.646;18.318;2022-08-19T17:36:04;26.95;;;11.45;;
72105;SDS011;59975;47.646;18.318;2022-08-19T17:41:52;22.30;;;9.82;;
72105;SDS011;59975;47.646;18.318;2022-08-19T17:44:19;19.20;;;10.43;;
72105;SDS011;59975;47.646;18.318;2022-08-19T17:46:45;21.33;;;12.10;;
72105;SDS011;59975;47.646;18.318;2022-08-19T17:49:11;13.23;;;7.93;;
72105;SDS011;59975;47.646;18.318;2022-08-19T17:51:39;15.70;;;6.50;;
72105;SDS011;59975;47.646;18.318;2022-08-19T17:54:07;13.57;;;7.15;;
72105;SDS011;59975;47.646;18.318;2022-08-19T18:03:20;13.57;;;6.50;;
72105;SDS011;59975;47.646;18.318;2022-08-19T18:12:29;16.50;;;7.60;;
72105;SDS011;59975;47.646;18.318;2022-08-19T18:14:56;15.23;;;7.10;;
72105;SDS011;59975;47.646;18.318;2022-08-19T18:17:24;15.63;;;7.25;;
72105;SDS011;59975;47.646;18.318;2022-08-19T18:23:11;19.92;;;7.43;;
72105;SDS011;59975;47.646;18.318;2022-08-19T18:28:59;15.60;;;6.67;;
72105;SDS011;59975;47.646;18.318;2022-08-19T18:34:47;18.48;;;7.25;;
72105;SDS011;59975;47.646;18.318;2022-08-19T18:37:13;15.27;;;6.90;;
72105;SDS011;59975;47.646;18.318;2022-08-19T18:39:40;19.93;;;7.37;;
72105;SDS011;59975;47.646;18.318;2022-08-19T18:45:47;17.45;;;7.25;;
72105;SDS011;59975;47.646;18.318;2022-08-19T18:51:55;13.20;;;7.45;;
72105;SDS011;59975;47.646;18.318;2022-08-19T18:57:42;26.05;;;7.93;;
72105;SDS011;59975;47.646;18.318;2022-08-19T19:06:52;13.63;;;7.38;;
72105;SDS011;59975;47.646;18.318;2022-08-19T19:19:24;12.30;;;6.72;;
72105;SDS011;59975;47.646;18.318;2022-08-19T19:21:51;18.63;;;7.43;;
72105;SDS011;59975;47.646;18.318;2022-08-19T19:24:20;15.33;;;6.90;;
72105;SDS011;59975;47.646;18.318;2022-08-19T19:26:50;16.25;;;7.28;;
72105;SDS011;59975;47.646;18.318;2022-08-19T19:29:18;12.73;;;6.40;;
72105;SDS011;59975;47.646;18.318;2022-08-19T19:31:44;12.57;;;6.50;;
72105;SDS011;59975;47.646;18.318;2022-08-19T19:34:10;17.33;;;6.93;;
72105;SDS011;59975;47.646;18.318;2022-08-19T19:49:56;10.95;;;5.22;;
72105;SDS011;59975;47.646;18.318;2022-08-19T19:52:22;11.93;;;4.80;;
72105;SDS011;59975;47.646;18.318;2022-08-19T19:58:11;13.52;;;4.47;;
72105;SDS011;59975;47.646;18.318;2022-08-19T20:03:59;9.52;;;3.95;;
72105;SDS011;59975;47.646;18.318;2022-08-19T20:06:25;13.87;;;3.63;;
72105;SDS011;59975;47.646;18.318;2022-08-19T20:25:41;15.10;;;3.38;;
72105;SDS011;59975;47.646;18.318;2022-08-19T20:31:29;14.25;;;4.65;;
72105;SDS011;59975;47.646;18.318;2022-08-19T20:33:55;15.10;;;5.27;;
72105;SDS011;59975;47.646;18.318;2022-08-19T20:36:21;15.35;;;6.25;;
72105;SDS011;59975;47.646;18.318;2022-08-19T20:38:49;13.38;;;5.82;;
72105;SDS011;59975;47.646;18.318;2022-08-19T20:41:15;13.73;;;5.47;;
72105;SDS011;59975;47.646;18.318;2022-08-19T20:47:03;16.33;;;6.30;;
72105;SDS011;59975;47.646;18.318;2022-08-19T20:49:30;14.03;;;5.70;;
72105;SDS011;59975;47.646;18.318;2022-08-19T21:01:43;17.92;;;7.15;;
72105;SDS011;59975;47.646;18.318;2022-08-19T21:07:31;18.17;;;7.90;;
72105;SDS011;59975;47.646;18.318;2022-08-19T21:26:46;21.33;;;9.35;;
72105;SDS011;59975;47.646;18.318;2022-08-19T21:35:55;21.63;;;9.23;;
72105;SDS011;59975;47.646;18.318;2022-08-19T21:41:42;15.38;;;7.72;;